sensor_id;sensor_type;location;lat;lon;timestamp;P1;durP1;ratioP1;P2;durP2;ratioP2
52730;SDS011;38624;53.242;6.974;2022-09-09T00:09:47;14.73;;;9.07;;
52730;SDS011;38624;53.242;6.974;2022-09-09T00:12:26;13.05;;;9.00;;
52730;SDS011;38624;53.242;6.974;2022-09-09T00:15:22;18.05;;;9.40;;
52730;SDS011;38624;53.242;6.974;2022-09-09T00:21:13;12.05;;;9.25;;
52730;SDS011;38624;53.242;6.974;2022-09-09T00:26:14;13.38;;;9.55;;
52730;SDS011;38624;53.242;6.974;2022-09-09T00:29:00;13.13;;;10.00;;
52730;SDS011;38624;53.242;6.974;2022-09-09T00:31:37;13.73;;;9.63;;
52730;SDS011;38624;53.242;6.974;2022-09-09T00:34:12;12.13;;;9.40;;
52730;SDS011;38624;53.242;6.974;2022-09-09T00:36:45;14.07;;;9.98;;
52730;SDS011;38624;53.242;6.974;2022-09-09T00:39:27;18.20;;;10.68;;
52730;SDS011;38624;53.242;6.974;2022-09-09T00:42:07;12.77;;;10.30;;
52730;SDS011;38624;53.242;6.974;2022-09-09T00:44:38;14.55;;;10.57;;
52730;SDS011;38624;53.242;6.974;2022-09-09T00:47:38;14.63;;;10.52;;
52730;SDS011;38624;53.242;6.974;2022-09-09T00:55:33;18.08;;;11.13;;
52730;SDS011;38624;53.242;6.974;2022-09-09T00:58:20;12.35;;;9.85;;
52730;SDS011;38624;53.242;6.974;2022-09-09T01:00:47;16.60;;;10.63;;
52730;SDS011;38624;53.242;6.974;2022-09-09T01:06:01;17.98;;;10.00;;
52730;SDS011;38624;53.242;6.974;2022-09-09T01:11:25;14.05;;;9.50;;
52730;SDS011;38624;53.242;6.974;2022-09-09T01:14:01;13.07;;;9.73;;
52730;SDS011;38624;53.242;6.974;2022-09-09T01:16:35;16.90;;;10.30;;
52730;SDS011;38624;53.242;6.974;2022-09-09T01:19:01;13.65;;;10.15;;
52730;SDS011;38624;53.242;6.974;2022-09-09T01:21:48;15.85;;;9.48;;
52730;SDS011;38624;53.242;6.974;2022-09-09T01:24:22;18.02;;;10.50;;
52730;SDS011;38624;53.242;6.974;2022-09-09T01:26:51;15.18;;;10.00;;
52730;SDS011;38624;53.242;6.974;2022-09-09T01:29:21;15.43;;;10.27;;
52730;SDS011;38624;53.242;6.974;2022-09-09T01:34:19;15.85;;;9.95;;
52730;SDS011;38624;53.242;6.974;2022-09-09T01:39:16;14.18;;;10.50;;
52730;SDS011;38624;53.242;6.974;2022-09-09T01:41:42;12.07;;;9.75;;
52730;SDS011;38624;53.242;6.974;2022-09-09T01:44:08;15.17;;;9.33;;
52730;SDS011;38624;53.242;6.974;2022-09-09T01:46:34;13.48;;;10.18;;
52730;SDS011;38624;53.242;6.974;2022-09-09T01:49:00;14.90;;;10.17;;
52730;SDS011;38624;53.242;6.974;2022-09-09T01:51:29;18.10;;;11.15;;
52730;SDS011;38624;53.242;6.974;2022-09-09T01:53:55;17.48;;;10.73;;
52730;SDS011;38624;53.242;6.974;2022-09-09T02:07:03;18.30;;;10.75;;
52730;SDS011;38624;53.242;6.974;2022-09-09T02:09:39;15.30;;;10.57;;
52730;SDS011;38624;53.242;6.974;2022-09-09T02:12:10;18.70;;;11.23;;
52730;SDS011;38624;53.242;6.974;2022-09-09T02:14:41;17.83;;;10.32;;
52730;SDS011;38624;53.242;6.974;2022-09-09T02:17:10;19.10;;;10.77;;
52730;SDS011;38624;53.242;6.974;2022-09-09T02:19:38;14.85;;;10.20;;
52730;SDS011;38624;53.242;6.974;2022-09-09T02:22:08;16.13;;;10.27;;
52730;SDS011;38624;53.242;6.974;2022-09-09T02:24:35;15.20;;;10.40;;
52730;SDS011;38624;53.242;6.974;2022-09-09T02:27:03;13.30;;;10.13;;
52730;SDS011;38624;53.242;6.974;2022-09-09T02:29:34;17.45;;;11.02;;
52730;SDS011;38624;53.242;6.974;2022-09-09T02:32:03;13.85;;;10.00;;
52730;SDS011;38624;53.242;6.974;2022-09-09T02:34:34;19.02;;;11.13;;
52730;SDS011;38624;53.242;6.974;2022-09-09T02:37:03;17.25;;;11.65;;
52730;SDS011;38624;53.242;6.974;2022-09-09T02:39:31;16.13;;;10.43;;
52730;SDS011;38624;53.242;6.974;2022-09-09T02:41:56;21.42;;;10.85;;
52730;SDS011;38624;53.242;6.974;2022-09-09T02:44:22;18.87;;;10.67;;
52730;SDS011;38624;53.242;6.974;2022-09-09T02:47:04;14.53;;;10.70;;
52730;SDS011;38624;53.242;6.974;2022-09-09T02:52:36;16.70;;;10.48;;
52730;SDS011;38624;53.242;6.974;2022-09-09T02:55:39;18.85;;;10.52;;
52730;SDS011;38624;53.242;6.974;2022-09-09T02:58:03;18.13;;;10.38;;
52730;SDS011;38624;53.242;6.974;2022-09-09T03:00:32;16.02;;;10.20;;
52730;SDS011;38624;53.242;6.974;2022-09-09T03:03:02;20.20;;;10.43;;
52730;SDS011;38624;53.242;6.974;2022-09-09T03:05:29;20.42;;;10.93;;
52730;SDS011;38624;53.242;6.974;2022-09-09T03:07:54;16.80;;;9.68;;
52730;SDS011;38624;53.242;6.974;2022-09-09T03:10:20;14.97;;;10.43;;
52730;SDS011;38624;53.242;6.974;2022-09-09T03:12:46;15.50;;;10.20;;
52730;SDS011;38624;53.242;6.974;2022-09-09T03:15:11;14.83;;;10.03;;
52730;SDS011;38624;53.242;6.974;2022-09-09T03:17:37;13.70;;;10.03;;
52730;SDS011;38624;53.242;6.974;2022-09-09T03:20:03;12.80;;;9.33;;
52730;SDS011;38624;53.242;6.974;2022-09-09T03:22:29;14.82;;;8.40;;
52730;SDS011;38624;53.242;6.974;2022-09-09T03:24:55;12.20;;;7.83;;
52730;SDS011;38624;53.242;6.974;2022-09-09T03:27:20;13.07;;;8.55;;
52730;SDS011;38624;53.242;6.974;2022-09-09T03:29:46;12.60;;;7.30;;
52730;SDS011;38624;53.242;6.974;2022-09-09T03:32:12;12.63;;;7.37;;
52730;SDS011;38624;53.242;6.974;2022-09-09T03:34:38;12.50;;;7.07;;
52730;SDS011;38624;53.242;6.974;2022-09-09T03:37:06;12.80;;;6.63;;
52730;SDS011;38624;53.242;6.974;2022-09-09T03:39:32;14.50;;;6.35;;
52730;SDS011;38624;53.242;6.974;2022-09-09T03:41:57;13.13;;;6.85;;
52730;SDS011;38624;53.242;6.974;2022-09-09T03:44:23;10.63;;;6.77;;
52730;SDS011;38624;53.242;6.974;2022-09-09T03:46:49;12.40;;;6.90;;
52730;SDS011;38624;53.242;6.974;2022-09-09T03:49:14;10.98;;;6.13;;
52730;SDS011;38624;53.242;6.974;2022-09-09T03:51:41;11.93;;;6.68;;
52730;SDS011;38624;53.242;6.974;2022-09-09T03:54:07;10.60;;;5.80;;
52730;SDS011;38624;53.242;6.974;2022-09-09T03:56:35;11.52;;;6.28;;
52730;SDS011;38624;53.242;6.974;2022-09-09T03:59:01;11.55;;;5.72;;
52730;SDS011;38624;53.242;6.974;2022-09-09T04:01:28;10.07;;;5.38;;
52730;SDS011;38624;53.242;6.974;2022-09-09T04:03:54;9.63;;;5.27;;
52730;SDS011;38624;53.242;6.974;2022-09-09T04:06:23;13.18;;;5.63;;
52730;SDS011;38624;53.242;6.974;2022-09-09T04:11:17;11.10;;;4.72;;
52730;SDS011;38624;53.242;6.974;2022-09-09T04:13:43;8.88;;;4.90;;
52730;SDS011;38624;53.242;6.974;2022-09-09T04:16:09;8.82;;;4.15;;
52730;SDS011;38624;53.242;6.974;2022-09-09T04:18:38;11.23;;;4.15;;
52730;SDS011;38624;53.242;6.974;2022-09-09T04:21:04;7.50;;;3.28;;
52730;SDS011;38624;53.242;6.974;2022-09-09T04:23:31;9.65;;;3.83;;
52730;SDS011;38624;53.242;6.974;2022-09-09T04:25:58;9.77;;;4.00;;
52730;SDS011;38624;53.242;6.974;2022-09-09T04:28:26;9.50;;;3.80;;
52730;SDS011;38624;53.242;6.974;2022-09-09T04:30:54;10.05;;;4.15;;
52730;SDS011;38624;53.242;6.974;2022-09-09T04:33:20;8.85;;;4.05;;
52730;SDS011;38624;53.242;6.974;2022-09-09T04:35:46;8.45;;;4.55;;
52730;SDS011;38624;53.242;6.974;2022-09-09T04:38:13;8.13;;;4.72;;
52730;SDS011;38624;53.242;6.974;2022-09-09T04:40:43;7.22;;;4.72;;
52730;SDS011;38624;53.242;6.974;2022-09-09T04:43:12;10.52;;;4.90;;
52730;SDS011;38624;53.242;6.974;2022-09-09T04:45:39;11.57;;;4.95;;
52730;SDS011;38624;53.242;6.974;2022-09-09T04:48:06;9.90;;;5.25;;
52730;SDS011;38624;53.242;6.974;2022-09-09T04:50:32;12.83;;;4.70;;
52730;SDS011;38624;53.242;6.974;2022-09-09T04:53:01;12.02;;;4.50;;
52730;SDS011;38624;53.242;6.974;2022-09-09T04:55:28;8.55;;;4.13;;
52730;SDS011;38624;53.242;6.974;2022-09-09T04:57:55;10.07;;;3.90;;
52730;SDS011;38624;53.242;6.974;2022-09-09T05:00:21;7.93;;;4.82;;
52730;SDS011;38624;53.242;6.974;2022-09-09T05:02:47;8.80;;;4.63;;
52730;SDS011;38624;53.242;6.974;2022-09-09T05:05:13;12.37;;;5.30;;
52730;SDS011;38624;53.242;6.974;2022-09-09T05:07:38;14.13;;;5.53;;
52730;SDS011;38624;53.242;6.974;2022-09-09T05:10:04;13.90;;;6.70;;
52730;SDS011;38624;53.242;6.974;2022-09-09T05:12:30;11.05;;;6.07;;
52730;SDS011;38624;53.242;6.974;2022-09-09T05:14:57;11.57;;;5.47;;
52730;SDS011;38624;53.242;6.974;2022-09-09T05:17:23;11.40;;;5.20;;
52730;SDS011;38624;53.242;6.974;2022-09-09T05:19:48;8.45;;;5.30;;
52730;SDS011;38624;53.242;6.974;2022-09-09T05:22:23;9.13;;;5.60;;
52730;SDS011;38624;53.242;6.974;2022-09-09T05:24:49;8.10;;;5.80;;
52730;SDS011;38624;53.242;6.974;2022-09-09T05:27:18;8.75;;;5.90;;
52730;SDS011;38624;53.242;6.974;2022-09-09T05:29:44;11.18;;;6.45;;
52730;SDS011;38624;53.242;6.974;2022-09-09T05:32:10;10.18;;;6.82;;
52730;SDS011;38624;53.242;6.974;2022-09-09T05:34:38;12.85;;;7.75;;
52730;SDS011;38624;53.242;6.974;2022-09-09T05:37:04;11.85;;;6.63;;
52730;SDS011;38624;53.242;6.974;2022-09-09T05:39:30;12.47;;;7.00;;
52730;SDS011;38624;53.242;6.974;2022-09-09T05:41:56;11.57;;;7.60;;
52730;SDS011;38624;53.242;6.974;2022-09-09T05:44:22;16.53;;;8.17;;
52730;SDS011;38624;53.242;6.974;2022-09-09T05:46:50;11.15;;;8.02;;
52730;SDS011;38624;53.242;6.974;2022-09-09T05:49:15;12.80;;;7.93;;
52730;SDS011;38624;53.242;6.974;2022-09-09T05:51:41;11.00;;;7.60;;
52730;SDS011;38624;53.242;6.974;2022-09-09T05:54:08;10.18;;;7.30;;
52730;SDS011;38624;53.242;6.974;2022-09-09T05:56:34;10.95;;;7.25;;
52730;SDS011;38624;53.242;6.974;2022-09-09T05:58:59;11.50;;;7.20;;
52730;SDS011;38624;53.242;6.974;2022-09-09T06:01:27;11.77;;;7.30;;
52730;SDS011;38624;53.242;6.974;2022-09-09T06:03:55;11.10;;;6.95;;
52730;SDS011;38624;53.242;6.974;2022-09-09T06:06:22;11.25;;;7.47;;
52730;SDS011;38624;53.242;6.974;2022-09-09T06:08:53;12.45;;;7.32;;
52730;SDS011;38624;53.242;6.974;2022-09-09T06:11:26;14.32;;;7.57;;
52730;SDS011;38624;53.242;6.974;2022-09-09T06:13:56;11.50;;;7.00;;
52730;SDS011;38624;53.242;6.974;2022-09-09T06:16:23;14.73;;;7.10;;
52730;SDS011;38624;53.242;6.974;2022-09-09T06:18:51;9.43;;;6.68;;
52730;SDS011;38624;53.242;6.974;2022-09-09T06:21:28;8.50;;;5.80;;
52730;SDS011;38624;53.242;6.974;2022-09-09T06:24:00;10.30;;;6.32;;
52730;SDS011;38624;53.242;6.974;2022-09-09T06:26:26;10.77;;;6.53;;
52730;SDS011;38624;53.242;6.974;2022-09-09T06:28:57;9.32;;;6.15;;
52730;SDS011;38624;53.242;6.974;2022-09-09T06:31:24;9.73;;;6.72;;
52730;SDS011;38624;53.242;6.974;2022-09-09T06:33:55;8.77;;;6.28;;
52730;SDS011;38624;53.242;6.974;2022-09-09T06:36:23;10.70;;;6.53;;
52730;SDS011;38624;53.242;6.974;2022-09-09T06:38:53;9.63;;;6.05;;
52730;SDS011;38624;53.242;6.974;2022-09-09T06:41:20;10.82;;;6.07;;
52730;SDS011;38624;53.242;6.974;2022-09-09T06:43:47;11.10;;;6.00;;
52730;SDS011;38624;53.242;6.974;2022-09-09T06:46:20;8.57;;;5.95;;
52730;SDS011;38624;53.242;6.974;2022-09-09T06:48:58;10.60;;;6.38;;
52730;SDS011;38624;53.242;6.974;2022-09-09T06:53:53;12.00;;;6.47;;
52730;SDS011;38624;53.242;6.974;2022-09-09T06:56:30;9.45;;;6.20;;
52730;SDS011;38624;53.242;6.974;2022-09-09T06:58:58;10.98;;;6.00;;
52730;SDS011;38624;53.242;6.974;2022-09-09T07:01:30;9.30;;;6.40;;
52730;SDS011;38624;53.242;6.974;2022-09-09T07:03:57;9.20;;;6.20;;
52730;SDS011;38624;53.242;6.974;2022-09-09T07:06:25;9.57;;;6.40;;
52730;SDS011;38624;53.242;6.974;2022-09-09T07:08:56;9.35;;;6.68;;
52730;SDS011;38624;53.242;6.974;2022-09-09T07:11:25;9.95;;;6.20;;
52730;SDS011;38624;53.242;6.974;2022-09-09T07:13:52;9.32;;;6.55;;
52730;SDS011;38624;53.242;6.974;2022-09-09T07:16:19;9.00;;;7.15;;
52730;SDS011;38624;53.242;6.974;2022-09-09T07:18:46;10.65;;;6.50;;
52730;SDS011;38624;53.242;6.974;2022-09-09T07:21:12;9.07;;;6.47;;
52730;SDS011;38624;53.242;6.974;2022-09-09T07:23:39;9.52;;;7.03;;
52730;SDS011;38624;53.242;6.974;2022-09-09T07:26:39;9.75;;;6.78;;
52730;SDS011;38624;53.242;6.974;2022-09-09T07:28:58;10.60;;;6.78;;
52730;SDS011;38624;53.242;6.974;2022-09-09T07:31:25;8.27;;;6.30;;
52730;SDS011;38624;53.242;6.974;2022-09-09T07:33:52;8.70;;;6.40;;
52730;SDS011;38624;53.242;6.974;2022-09-09T07:36:19;8.23;;;6.10;;
52730;SDS011;38624;53.242;6.974;2022-09-09T07:38:48;10.50;;;6.53;;
52730;SDS011;38624;53.242;6.974;2022-09-09T07:41:17;8.13;;;5.78;;
52730;SDS011;38624;53.242;6.974;2022-09-09T07:43:48;9.25;;;6.35;;
52730;SDS011;38624;53.242;6.974;2022-09-09T07:46:15;9.63;;;6.43;;
52730;SDS011;38624;53.242;6.974;2022-09-09T07:48:49;8.48;;;5.97;;
52730;SDS011;38624;53.242;6.974;2022-09-09T07:51:17;9.43;;;6.10;;
52730;SDS011;38624;53.242;6.974;2022-09-09T07:53:54;9.50;;;5.45;;
52730;SDS011;38624;53.242;6.974;2022-09-09T07:56:25;12.02;;;4.93;;
52730;SDS011;38624;53.242;6.974;2022-09-09T07:58:52;9.10;;;5.22;;
52730;SDS011;38624;53.242;6.974;2022-09-09T08:01:30;7.55;;;5.05;;
52730;SDS011;38624;53.242;6.974;2022-09-09T08:04:08;7.13;;;4.75;;
52730;SDS011;38624;53.242;6.974;2022-09-09T08:06:38;8.57;;;5.10;;
52730;SDS011;38624;53.242;6.974;2022-09-09T08:09:06;7.78;;;4.95;;
52730;SDS011;38624;53.242;6.974;2022-09-09T08:11:33;8.48;;;4.85;;
52730;SDS011;38624;53.242;6.974;2022-09-09T08:14:00;7.53;;;4.80;;
52730;SDS011;38624;53.242;6.974;2022-09-09T08:16:27;8.73;;;4.80;;
52730;SDS011;38624;53.242;6.974;2022-09-09T08:18:55;6.05;;;4.55;;
52730;SDS011;38624;53.242;6.974;2022-09-09T08:21:25;7.15;;;4.68;;
52730;SDS011;38624;53.242;6.974;2022-09-09T08:23:53;12.13;;;4.97;;
52730;SDS011;38624;53.242;6.974;2022-09-09T08:26:21;9.23;;;4.90;;
52730;SDS011;38624;53.242;6.974;2022-09-09T08:28:52;5.75;;;4.40;;
52730;SDS011;38624;53.242;6.974;2022-09-09T08:31:20;6.72;;;4.20;;
52730;SDS011;38624;53.242;6.974;2022-09-09T08:33:48;7.35;;;4.07;;
52730;SDS011;38624;53.242;6.974;2022-09-09T08:36:15;7.35;;;4.80;;
52730;SDS011;38624;53.242;6.974;2022-09-09T08:38:42;6.97;;;4.10;;
52730;SDS011;38624;53.242;6.974;2022-09-09T08:51:46;7.75;;;4.30;;
52730;SDS011;38624;53.242;6.974;2022-09-09T08:54:14;6.20;;;3.88;;
52730;SDS011;38624;53.242;6.974;2022-09-09T08:56:40;8.15;;;4.03;;
52730;SDS011;38624;53.242;6.974;2022-09-09T08:59:07;5.30;;;4.10;;
52730;SDS011;38624;53.242;6.974;2022-09-09T09:01:49;6.05;;;3.97;;
52730;SDS011;38624;53.242;6.974;2022-09-09T09:07:24;7.20;;;4.22;;
52730;SDS011;38624;53.242;6.974;2022-09-09T09:12:50;5.95;;;3.88;;
52730;SDS011;38624;53.242;6.974;2022-09-09T09:15:18;7.93;;;4.05;;
52730;SDS011;38624;53.242;6.974;2022-09-09T09:17:48;7.60;;;4.38;;
52730;SDS011;38624;53.242;6.974;2022-09-09T09:28:17;9.48;;;4.47;;
52730;SDS011;38624;53.242;6.974;2022-09-09T09:33:31;7.25;;;4.18;;
52730;SDS011;38624;53.242;6.974;2022-09-09T09:36:08;7.70;;;4.57;;
52730;SDS011;38624;53.242;6.974;2022-09-09T09:38:34;7.27;;;3.87;;
52730;SDS011;38624;53.242;6.974;2022-09-09T09:41:01;7.43;;;4.18;;
52730;SDS011;38624;53.242;6.974;2022-09-09T09:43:29;7.40;;;3.65;;
52730;SDS011;38624;53.242;6.974;2022-09-09T09:45:59;7.60;;;3.38;;
52730;SDS011;38624;53.242;6.974;2022-09-09T09:48:28;9.27;;;3.78;;
52730;SDS011;38624;53.242;6.974;2022-09-09T09:50:55;5.87;;;3.17;;
52730;SDS011;38624;53.242;6.974;2022-09-09T09:53:25;7.32;;;3.42;;
52730;SDS011;38624;53.242;6.974;2022-09-09T09:55:57;8.10;;;3.35;;
52730;SDS011;38624;53.242;6.974;2022-09-09T09:58:29;8.18;;;3.97;;
52730;SDS011;38624;53.242;6.974;2022-09-09T10:00:59;6.68;;;3.50;;
52730;SDS011;38624;53.242;6.974;2022-09-09T10:03:30;11.23;;;3.97;;
52730;SDS011;38624;53.242;6.974;2022-09-09T10:05:58;6.68;;;3.45;;
52730;SDS011;38624;53.242;6.974;2022-09-09T10:08:24;6.00;;;3.50;;
52730;SDS011;38624;53.242;6.974;2022-09-09T10:13:31;7.55;;;3.40;;
52730;SDS011;38624;53.242;6.974;2022-09-09T10:30:12;7.50;;;2.63;;
52730;SDS011;38624;53.242;6.974;2022-09-09T10:33:13;8.93;;;2.30;;
52730;SDS011;38624;53.242;6.974;2022-09-09T10:38:42;8.23;;;2.03;;
52730;SDS011;38624;53.242;6.974;2022-09-09T10:41:14;8.80;;;2.08;;
52730;SDS011;38624;53.242;6.974;2022-09-09T10:43:52;5.63;;;1.60;;
52730;SDS011;38624;53.242;6.974;2022-09-09T10:57:23;7.40;;;1.85;;
52730;SDS011;38624;53.242;6.974;2022-09-09T10:59:56;6.75;;;1.98;;
52730;SDS011;38624;53.242;6.974;2022-09-09T11:02:27;9.43;;;3.00;;
52730;SDS011;38624;53.242;6.974;2022-09-09T11:04:55;7.40;;;1.92;;
52730;SDS011;38624;53.242;6.974;2022-09-09T11:07:44;8.60;;;2.33;;
52730;SDS011;38624;53.242;6.974;2022-09-09T11:10:21;6.03;;;1.77;;
52730;SDS011;38624;53.242;6.974;2022-09-09T11:12:57;7.25;;;1.90;;
52730;SDS011;38624;53.242;6.974;2022-09-09T11:15:46;8.93;;;2.08;;
52730;SDS011;38624;53.242;6.974;2022-09-09T11:18:22;5.60;;;1.48;;
52730;SDS011;38624;53.242;6.974;2022-09-09T11:20:50;7.57;;;2.40;;
52730;SDS011;38624;53.242;6.974;2022-09-09T11:23:22;4.70;;;1.42;;
52730;SDS011;38624;53.242;6.974;2022-09-09T11:25:58;6.25;;;1.70;;
52730;SDS011;38624;53.242;6.974;2022-09-09T11:31:37;4.65;;;1.45;;
52730;SDS011;38624;53.242;6.974;2022-09-09T11:34:34;7.80;;;1.85;;
52730;SDS011;38624;53.242;6.974;2022-09-09T11:40:19;7.05;;;1.70;;
52730;SDS011;38624;53.242;6.974;2022-09-09T11:43:01;6.88;;;2.05;;
52730;SDS011;38624;53.242;6.974;2022-09-09T11:45:27;5.45;;;1.35;;
52730;SDS011;38624;53.242;6.974;2022-09-09T11:47:54;6.43;;;1.50;;
52730;SDS011;38624;53.242;6.974;2022-09-09T11:52:50;5.00;;;1.48;;
52730;SDS011;38624;53.242;6.974;2022-09-09T11:55:29;6.20;;;1.35;;
52730;SDS011;38624;53.242;6.974;2022-09-09T12:00:37;4.57;;;1.30;;
52730;SDS011;38624;53.242;6.974;2022-09-09T12:05:53;5.85;;;1.50;;
52730;SDS011;38624;53.242;6.974;2022-09-09T12:08:23;7.28;;;1.80;;
52730;SDS011;38624;53.242;6.974;2022-09-09T12:10:56;7.07;;;1.60;;
52730;SDS011;38624;53.242;6.974;2022-09-09T12:13:25;5.95;;;1.70;;
52730;SDS011;38624;53.242;6.974;2022-09-09T12:15:55;5.07;;;1.45;;
52730;SDS011;38624;53.242;6.974;2022-09-09T12:18:37;6.22;;;1.30;;
52730;SDS011;38624;53.242;6.974;2022-09-09T12:39:56;4.70;;;1.30;;
52730;SDS011;38624;53.242;6.974;2022-09-09T12:42:24;4.68;;;1.38;;
52730;SDS011;38624;53.242;6.974;2022-09-09T12:44:57;6.25;;;1.50;;
52730;SDS011;38624;53.242;6.974;2022-09-09T12:49:59;5.38;;;1.40;;
52730;SDS011;38624;53.242;6.974;2022-09-09T12:54:51;5.20;;;1.40;;
52730;SDS011;38624;53.242;6.974;2022-09-09T12:57:19;4.82;;;1.30;;
52730;SDS011;38624;53.242;6.974;2022-09-09T12:59:47;5.28;;;1.05;;
52730;SDS011;38624;53.242;6.974;2022-09-09T13:02:23;5.68;;;1.23;;
52730;SDS011;38624;53.242;6.974;2022-09-09T13:04:51;7.07;;;1.30;;
52730;SDS011;38624;53.242;6.974;2022-09-09T13:07:18;4.30;;;1.00;;
52730;SDS011;38624;53.242;6.974;2022-09-09T13:09:45;5.00;;;1.27;;
52730;SDS011;38624;53.242;6.974;2022-09-09T13:12:16;4.95;;;1.30;;
52730;SDS011;38624;53.242;6.974;2022-09-09T13:14:44;3.95;;;1.13;;
52730;SDS011;38624;53.242;6.974;2022-09-09T13:17:48;4.22;;;1.17;;
52730;SDS011;38624;53.242;6.974;2022-09-09T13:20:06;4.32;;;1.20;;
52730;SDS011;38624;53.242;6.974;2022-09-09T13:22:40;5.50;;;1.45;;
52730;SDS011;38624;53.242;6.974;2022-09-09T13:25:17;3.75;;;1.10;;
52730;SDS011;38624;53.242;6.974;2022-09-09T13:30:21;4.63;;;1.27;;
52730;SDS011;38624;53.242;6.974;2022-09-09T13:33:06;4.55;;;1.15;;
52730;SDS011;38624;53.242;6.974;2022-09-09T13:35:35;6.07;;;1.10;;
52730;SDS011;38624;53.242;6.974;2022-09-09T13:38:13;4.72;;;1.30;;
52730;SDS011;38624;53.242;6.974;2022-09-09T13:40:40;3.70;;;1.10;;
52730;SDS011;38624;53.242;6.974;2022-09-09T13:45:52;4.18;;;1.13;;
52730;SDS011;38624;53.242;6.974;2022-09-09T13:48:19;6.25;;;1.33;;
52730;SDS011;38624;53.242;6.974;2022-09-09T13:50:53;6.22;;;1.20;;
52730;SDS011;38624;53.242;6.974;2022-09-09T13:53:20;2.83;;;0.88;;
52730;SDS011;38624;53.242;6.974;2022-09-09T13:55:46;5.65;;;1.00;;
52730;SDS011;38624;53.242;6.974;2022-09-09T13:58:15;4.72;;;1.00;;
52730;SDS011;38624;53.242;6.974;2022-09-09T14:00:44;5.35;;;1.00;;
52730;SDS011;38624;53.242;6.974;2022-09-09T14:03:10;3.78;;;1.00;;
52730;SDS011;38624;53.242;6.974;2022-09-09T14:05:36;8.07;;;1.25;;
52730;SDS011;38624;53.242;6.974;2022-09-09T14:08:03;4.15;;;1.08;;
52730;SDS011;38624;53.242;6.974;2022-09-09T14:10:30;4.35;;;1.00;;
52730;SDS011;38624;53.242;6.974;2022-09-09T14:12:56;3.60;;;1.15;;
52730;SDS011;38624;53.242;6.974;2022-09-09T14:15:21;2.60;;;1.00;;
52730;SDS011;38624;53.242;6.974;2022-09-09T14:17:47;3.15;;;0.95;;
52730;SDS011;38624;53.242;6.974;2022-09-09T14:20:14;4.07;;;1.00;;
52730;SDS011;38624;53.242;6.974;2022-09-09T14:22:40;3.30;;;1.20;;
52730;SDS011;38624;53.242;6.974;2022-09-09T14:25:06;2.47;;;1.02;;
52730;SDS011;38624;53.242;6.974;2022-09-09T14:27:33;4.65;;;1.00;;
52730;SDS011;38624;53.242;6.974;2022-09-09T14:29:59;4.38;;;0.90;;
52730;SDS011;38624;53.242;6.974;2022-09-09T14:32:26;2.55;;;0.93;;
52730;SDS011;38624;53.242;6.974;2022-09-09T14:34:51;1.67;;;0.60;;
52730;SDS011;38624;53.242;6.974;2022-09-09T14:37:17;5.75;;;1.00;;
52730;SDS011;38624;53.242;6.974;2022-09-09T14:39:43;3.65;;;0.95;;
52730;SDS011;38624;53.242;6.974;2022-09-09T14:42:10;2.38;;;0.85;;
52730;SDS011;38624;53.242;6.974;2022-09-09T14:44:36;4.75;;;0.95;;
52730;SDS011;38624;53.242;6.974;2022-09-09T14:47:03;2.80;;;0.88;;
52730;SDS011;38624;53.242;6.974;2022-09-09T14:49:33;2.50;;;1.02;;
52730;SDS011;38624;53.242;6.974;2022-09-09T14:51:59;3.80;;;0.90;;
52730;SDS011;38624;53.242;6.974;2022-09-09T14:54:25;3.53;;;1.00;;
52730;SDS011;38624;53.242;6.974;2022-09-09T14:56:51;6.32;;;0.95;;
52730;SDS011;38624;53.242;6.974;2022-09-09T14:59:17;6.13;;;0.98;;
52730;SDS011;38624;53.242;6.974;2022-09-09T15:01:42;4.93;;;1.17;;
52730;SDS011;38624;53.242;6.974;2022-09-09T15:04:10;2.73;;;1.00;;
52730;SDS011;38624;53.242;6.974;2022-09-09T15:06:37;3.85;;;1.20;;
52730;SDS011;38624;53.242;6.974;2022-09-09T15:09:04;2.03;;;0.85;;
52730;SDS011;38624;53.242;6.974;2022-09-09T15:11:31;1.65;;;0.90;;
52730;SDS011;38624;53.242;6.974;2022-09-09T15:14:02;5.72;;;1.67;;
52730;SDS011;38624;53.242;6.974;2022-09-09T15:16:29;3.42;;;1.15;;
52730;SDS011;38624;53.242;6.974;2022-09-09T15:18:57;4.28;;;1.50;;
52730;SDS011;38624;53.242;6.974;2022-09-09T15:21:24;4.72;;;1.20;;
52730;SDS011;38624;53.242;6.974;2022-09-09T15:23:55;6.25;;;1.60;;
52730;SDS011;38624;53.242;6.974;2022-09-09T15:26:21;4.32;;;1.23;;
52730;SDS011;38624;53.242;6.974;2022-09-09T15:28:48;5.00;;;1.58;;
52730;SDS011;38624;53.242;6.974;2022-09-09T15:31:16;5.43;;;1.60;;
52730;SDS011;38624;53.242;6.974;2022-09-09T15:33:50;4.22;;;1.17;;
52730;SDS011;38624;53.242;6.974;2022-09-09T15:36:26;3.33;;;1.35;;
52730;SDS011;38624;53.242;6.974;2022-09-09T15:38:54;4.32;;;1.30;;
52730;SDS011;38624;53.242;6.974;2022-09-09T15:41:20;5.38;;;1.45;;
52730;SDS011;38624;53.242;6.974;2022-09-09T15:43:48;3.22;;;1.20;;
52730;SDS011;38624;53.242;6.974;2022-09-09T15:48:42;2.80;;;0.93;;
52730;SDS011;38624;53.242;6.974;2022-09-09T15:51:09;1.55;;;0.70;;
52730;SDS011;38624;53.242;6.974;2022-09-09T15:53:36;2.88;;;0.88;;
52730;SDS011;38624;53.242;6.974;2022-09-09T15:56:04;2.28;;;0.70;;
52730;SDS011;38624;53.242;6.974;2022-09-09T15:58:34;1.42;;;0.80;;
52730;SDS011;38624;53.242;6.974;2022-09-09T16:01:10;1.40;;;0.70;;
52730;SDS011;38624;53.242;6.974;2022-09-09T16:03:39;2.88;;;0.70;;
52730;SDS011;38624;53.242;6.974;2022-09-09T16:06:12;4.75;;;0.63;;
52730;SDS011;38624;53.242;6.974;2022-09-09T16:08:40;1.35;;;0.70;;
52730;SDS011;38624;53.242;6.974;2022-09-09T16:11:12;1.25;;;0.50;;
52730;SDS011;38624;53.242;6.974;2022-09-09T16:13:40;2.10;;;0.68;;
52730;SDS011;38624;53.242;6.974;2022-09-09T16:16:08;2.50;;;0.57;;
52730;SDS011;38624;53.242;6.974;2022-09-09T16:18:42;4.47;;;0.70;;
52730;SDS011;38624;53.242;6.974;2022-09-09T16:21:13;2.85;;;0.47;;
52730;SDS011;38624;53.242;6.974;2022-09-09T16:23:45;2.40;;;0.57;;
52730;SDS011;38624;53.242;6.974;2022-09-09T16:26:11;1.63;;;0.50;;
52730;SDS011;38624;53.242;6.974;2022-09-09T16:28:38;0.85;;;0.43;;
52730;SDS011;38624;53.242;6.974;2022-09-09T16:31:08;2.55;;;0.43;;
52730;SDS011;38624;53.242;6.974;2022-09-09T16:33:44;0.47;;;0.38;;
52730;SDS011;38624;53.242;6.974;2022-09-09T16:36:15;1.35;;;0.40;;
52730;SDS011;38624;53.242;6.974;2022-09-09T16:38:43;2.42;;;0.50;;
52730;SDS011;38624;53.242;6.974;2022-09-09T16:41:09;0.60;;;0.50;;
52730;SDS011;38624;53.242;6.974;2022-09-09T16:43:36;6.15;;;0.77;;
52730;SDS011;38624;53.242;6.974;2022-09-09T16:48:36;2.03;;;0.80;;
52730;SDS011;38624;53.242;6.974;2022-09-09T16:51:05;1.43;;;0.70;;
52730;SDS011;38624;53.242;6.974;2022-09-09T16:53:33;2.25;;;0.60;;
52730;SDS011;38624;53.242;6.974;2022-09-09T16:58:31;2.45;;;0.80;;
52730;SDS011;38624;53.242;6.974;2022-09-09T17:00:58;1.47;;;0.80;;
52730;SDS011;38624;53.242;6.974;2022-09-09T17:03:24;1.52;;;0.70;;
52730;SDS011;38624;53.242;6.974;2022-09-09T17:05:50;4.82;;;0.80;;
52730;SDS011;38624;53.242;6.974;2022-09-09T17:08:15;4.20;;;1.27;;
52730;SDS011;38624;53.242;6.974;2022-09-09T17:10:41;3.50;;;0.87;;
52730;SDS011;38624;53.242;6.974;2022-09-09T17:13:07;1.90;;;0.70;;
52730;SDS011;38624;53.242;6.974;2022-09-09T17:15:33;1.67;;;0.90;;
52730;SDS011;38624;53.242;6.974;2022-09-09T17:18:07;6.60;;;1.00;;
52730;SDS011;38624;53.242;6.974;2022-09-09T17:20:35;1.83;;;0.70;;
52730;SDS011;38624;53.242;6.974;2022-09-09T17:23:08;4.40;;;1.05;;
52730;SDS011;38624;53.242;6.974;2022-09-09T17:25:34;4.32;;;0.88;;
52730;SDS011;38624;53.242;6.974;2022-09-09T17:28:01;3.88;;;1.17;;
52730;SDS011;38624;53.242;6.974;2022-09-09T17:30:29;3.28;;;0.95;;
52730;SDS011;38624;53.242;6.974;2022-09-09T17:33:02;3.10;;;1.00;;